Terminal Aerodrome Forecast
Issued by NWS

Home | Current Version | Previous Version | Text Only | Print | Product List | Glossary On
Versions: 1 2 3 4 5 6 7 8 9 10 11 12 13 14 15 16 17 18 19 20 21
000
FTAK31 PAJN 271414 AAB
TAFAYA
TAF AMD
PAYA 271414Z 2714/2812 VRB06KT P6SM -RA OVC025
      TEMPO 2714/2718 2SM RA BR BKN009
     FM272100 13006KT P6SM -SHRA BKN030 OVC090
     FM280000 VRB03KT P6SM VCSH OVC040
     FM280700 18002KT P6SM -RA OVC025
      AMD LTD TO CLD VIS AND WIND 2801/2809=

USA.gov is the U.S. government's official web portal to all federal, state and local government web resources and services.